createdAt,value
2022-08-30T00:01:14.434Z,13.68
2022-08-30T00:03:46.110Z,19.63
2022-08-30T00:06:16.437Z,19.10
2022-08-30T00:08:44.816Z,15.52
2022-08-30T00:11:17.424Z,14.77
2022-08-30T00:13:47.417Z,16.35
2022-08-30T00:16:15.577Z,15.52
2022-08-30T00:18:43.835Z,15.07
2022-08-30T00:21:12.699Z,14.05
2022-08-30T00:23:41.554Z,16.67
2022-08-30T00:26:09.392Z,16.45
2022-08-30T00:28:37.702Z,14.90
2022-08-30T00:31:08.243Z,15.75
2022-08-30T00:33:36.109Z,15.82
2022-08-30T00:36:05.116Z,13.77
2022-08-30T00:38:32.921Z,18.40
2022-08-30T00:41:01.486Z,15.73
2022-08-30T00:43:31.993Z,16.13
2022-08-30T00:46:04.220Z,15.25
2022-08-30T00:48:37.093Z,13.60
2022-08-30T00:51:08.907Z,14.27
2022-08-30T00:53:40.027Z,18.02
2022-08-30T00:56:08.358Z,16.77
2022-08-30T00:58:39.541Z,14.55
2022-08-30T01:01:08.820Z,15.90
2022-08-30T01:03:39.490Z,14.73
2022-08-30T01:06:08.628Z,17.52
2022-08-30T01:08:36.709Z,17.85
2022-08-30T01:11:05.236Z,15.73
2022-08-30T01:13:35.737Z,14.65
2022-08-30T01:16:05.021Z,16.98
2022-08-30T01:18:33.417Z,17.48
2022-08-30T01:21:06.954Z,17.10
2022-08-30T01:23:38.783Z,18.95
2022-08-30T01:26:07.903Z,17.23
2022-08-30T01:28:36.474Z,20.17
2022-08-30T01:31:04.778Z,14.45
2022-08-30T01:33:33.001Z,16.10
2022-08-30T01:36:03.715Z,18.17
2022-08-30T01:38:35.753Z,16.08
2022-08-30T01:41:12.220Z,15.13
2022-08-30T01:43:40.179Z,17.02
2022-08-30T01:46:08.393Z,14.43
2022-08-30T01:48:36.262Z,15.15
2022-08-30T01:51:04.794Z,16.63
2022-08-30T01:53:32.607Z,15.77
2022-08-30T01:56:00.409Z,14.10
2022-08-30T01:58:29.903Z,16.40
2022-08-30T02:00:58.444Z,13.93
2022-08-30T02:03:30.429Z,18.95
2022-08-30T02:05:58.233Z,18.92
2022-08-30T02:08:26.007Z,29.50
2022-08-30T02:10:58.026Z,20.55
2022-08-30T02:13:25.872Z,15.38
2022-08-30T02:15:55.849Z,17.98
2022-08-30T02:18:26.051Z,16.20
2022-08-30T02:20:53.855Z,19.73
2022-08-30T02:23:21.671Z,15.82
2022-08-30T02:25:49.392Z,14.20
2022-08-30T02:28:19.726Z,14.23
2022-08-30T02:30:47.969Z,12.85
2022-08-30T02:33:17.284Z,17.75
2022-08-30T02:35:45.221Z,16.08
2022-08-30T02:38:13.940Z,16.95
2022-08-30T02:40:44.440Z,15.75
2022-08-30T02:43:12.548Z,15.90
2022-08-30T02:45:40.354Z,19.10
2022-08-30T02:48:08.179Z,16.23
2022-08-30T02:50:42.223Z,16.58
2022-08-30T02:53:10.151Z,12.57
2022-08-30T02:55:41.881Z,12.77
2022-08-30T02:58:10.628Z,13.75
2022-08-30T03:00:39.272Z,13.38
2022-08-30T03:03:07.547Z,16.13
2022-08-30T03:05:39.901Z,15.70
2022-08-30T03:08:08.086Z,17.85
2022-08-30T03:10:35.949Z,13.52
2022-08-30T03:13:05.920Z,12.82
2022-08-30T03:15:33.876Z,16.63
2022-08-30T03:18:01.723Z,13.35
2022-08-30T03:20:29.560Z,12.40
2022-08-30T03:22:58.996Z,13.93
2022-08-30T03:25:26.880Z,13.32
2022-08-30T03:27:57.470Z,15.65
2022-08-30T03:30:25.370Z,18.15
2022-08-30T03:32:53.271Z,15.25
2022-08-30T03:35:21.480Z,12.30
2022-08-30T03:37:56.193Z,17.25
2022-08-30T03:40:26.029Z,16.00
2022-08-30T03:42:53.955Z,14.70
2022-08-30T03:45:22.211Z,14.65
2022-08-30T03:47:50.003Z,15.93
2022-08-30T03:50:17.844Z,13.30
2022-08-30T03:52:45.964Z,15.15
2022-08-30T03:55:13.784Z,18.52
2022-08-30T03:57:43.883Z,16.95
2022-08-30T04:00:13.315Z,18.83
2022-08-30T04:02:41.756Z,15.73
2022-08-30T04:05:10.955Z,16.90
2022-08-30T04:07:39.029Z,20.50
2022-08-30T04:10:08.625Z,14.88
2022-08-30T04:12:38.590Z,20.50
2022-08-30T04:15:10.536Z,14.88
2022-08-30T04:17:38.343Z,19.35
2022-08-30T04:20:07.202Z,16.45
2022-08-30T04:22:35.240Z,16.38
2022-08-30T04:25:03.143Z,15.18
2022-08-30T04:27:30.916Z,16.02
2022-08-30T04:30:00.187Z,16.35
2022-08-30T04:32:29.528Z,14.90
2022-08-30T04:34:58.585Z,16.27
2022-08-30T04:37:26.455Z,15.38
2022-08-30T04:39:57.477Z,15.80
2022-08-30T04:42:25.517Z,15.88
2022-08-30T04:44:53.333Z,14.95
2022-08-30T04:47:21.119Z,14.07
2022-08-30T04:49:50.491Z,17.00
2022-08-30T04:52:18.310Z,14.93
2022-08-30T04:54:46.192Z,16.85
2022-08-30T04:57:14.003Z,14.52
2022-08-30T04:59:41.789Z,14.65
2022-08-30T05:02:12.156Z,16.33
2022-08-30T05:05:03.249Z,13.43
2022-08-30T05:07:33.801Z,14.75
2022-08-30T05:10:01.677Z,13.52
2022-08-30T05:12:29.467Z,14.98
2022-08-30T05:14:58.272Z,14.90
2022-08-30T05:17:26.749Z,14.55
2022-08-30T05:19:54.518Z,13.23
2022-08-30T05:22:22.316Z,14.30
2022-08-30T05:24:51.465Z,16.17
2022-08-30T05:27:19.268Z,12.50
2022-08-30T05:29:48.174Z,13.95
2022-08-30T05:32:15.953Z,13.43
2022-08-30T05:34:43.730Z,12.38
2022-08-30T05:37:11.571Z,13.82
2022-08-30T05:39:50.981Z,13.77
2022-08-30T05:42:21.060Z,15.82
2022-08-30T05:44:52.120Z,11.02
2022-08-30T05:47:20.307Z,16.38
2022-08-30T05:49:49.926Z,12.95
2022-08-30T05:52:20.291Z,13.80
2022-08-30T05:54:54.304Z,18.33
2022-08-30T05:57:23.952Z,15.98
2022-08-30T05:59:51.801Z,11.90
2022-08-30T06:02:19.665Z,12.38
2022-08-30T06:04:47.498Z,12.77
2022-08-30T06:07:16.486Z,12.25
2022-08-30T06:09:45.827Z,12.32
2022-08-30T06:12:13.618Z,10.15
2022-08-30T06:14:42.917Z,12.18
2022-08-30T06:17:10.747Z,11.20
2022-08-30T06:19:38.514Z,12.35
2022-08-30T06:22:06.472Z,12.30
2022-08-30T06:24:56.462Z,11.48
2022-08-30T06:27:24.112Z,12.27
2022-08-30T06:29:54.398Z,13.05
2022-08-30T06:32:22.211Z,17.15
2022-08-30T06:34:50.091Z,14.95
2022-08-30T06:37:29.204Z,15.60
2022-08-30T06:39:58.599Z,14.88
2022-08-30T06:42:31.706Z,15.88
2022-08-30T06:45:01.518Z,13.93
2022-08-30T06:47:29.870Z,13.48
2022-08-30T06:49:58.729Z,14.50
2022-08-30T06:52:26.565Z,11.88
2022-08-30T06:54:55.035Z,11.20
2022-08-30T06:57:22.830Z,11.30
2022-08-30T06:59:54.159Z,10.70
2022-08-30T07:02:26.617Z,11.57
2022-08-30T07:04:54.547Z,11.48
2022-08-30T07:07:23.134Z,10.77
2022-08-30T07:09:50.976Z,12.18
2022-08-30T07:12:18.802Z,12.30
2022-08-30T07:14:46.702Z,10.00
2022-08-30T07:17:34.719Z,14.05
2022-08-30T07:20:05.274Z,9.63
2022-08-30T07:22:33.671Z,10.40
2022-08-30T07:25:01.777Z,10.45
2022-08-30T07:27:29.697Z,11.93
2022-08-30T07:29:58.796Z,10.85
2022-08-30T07:32:26.717Z,11.07
2022-08-30T07:34:54.515Z,11.40
2022-08-30T07:37:23.735Z,9.60
2022-08-30T07:39:51.623Z,13.02
2022-08-30T07:42:19.894Z,10.63
2022-08-30T07:44:47.651Z,11.25
2022-08-30T07:47:16.726Z,10.80
2022-08-30T07:49:44.635Z,13.10
2022-08-30T07:52:14.601Z,10.60
2022-08-30T07:54:44.103Z,10.70
2022-08-30T07:57:13.636Z,11.18
2022-08-30T07:59:43.857Z,9.90
2022-08-30T08:02:11.765Z,11.57
2022-08-30T08:04:39.636Z,10.52
2022-08-30T08:07:07.463Z,9.77
2022-08-30T08:09:36.117Z,12.40
2022-08-30T08:12:07.884Z,10.10
2022-08-30T08:14:36.323Z,14.05
2022-08-30T08:17:05.047Z,10.30
2022-08-30T08:19:32.965Z,10.43
2022-08-30T08:24:48.665Z,11.77
2022-08-30T08:27:18.197Z,10.18
2022-08-30T08:29:46.036Z,12.18
2022-08-30T08:32:13.792Z,15.32
2022-08-30T08:34:41.630Z,14.63
2022-08-30T08:37:09.457Z,10.20
2022-08-30T08:39:37.264Z,13.25
2022-08-30T08:42:14.239Z,9.80
2022-08-30T08:44:54.734Z,10.90
2022-08-30T08:47:30.681Z,11.70
2022-08-30T08:52:55.022Z,10.95
2022-08-30T08:55:23.996Z,11.00
2022-08-30T08:57:52.503Z,8.80
2022-08-30T09:00:21.823Z,10.55
2022-08-30T09:02:58.507Z,8.02
2022-08-30T09:05:30.348Z,8.27
2022-08-30T09:08:06.564Z,9.07
2022-08-30T09:10:54.692Z,9.07
2022-08-30T09:13:23.068Z,8.23
2022-08-30T09:15:54.960Z,8.15
2022-08-30T09:18:42.591Z,7.30
2022-08-30T09:21:14.522Z,7.93
2022-08-30T09:23:49.729Z,7.78
2022-08-30T09:26:29.864Z,8.40
2022-08-30T09:28:59.184Z,7.38
2022-08-30T09:31:31.804Z,9.27
2022-08-30T09:34:03.363Z,10.40
2022-08-30T09:36:35.412Z,11.23
2022-08-30T09:39:06.462Z,8.23
2022-08-30T09:41:42.566Z,13.85
2022-08-30T09:44:15.570Z,10.75
2022-08-30T09:46:50.813Z,11.75
2022-08-30T09:49:34.375Z,7.28
2022-08-30T09:52:28.574Z,8.63
2022-08-30T09:55:10.906Z,6.97
2022-08-30T09:57:46.320Z,6.90
2022-08-30T10:00:19.513Z,10.88
2022-08-30T10:02:59.226Z,9.95
2022-08-30T10:05:37.077Z,8.52
2022-08-30T10:08:13.456Z,12.13
2022-08-30T10:10:50.203Z,8.73
2022-08-30T10:13:38.031Z,8.60
2022-08-30T10:16:16.898Z,8.90
2022-08-30T10:18:54.266Z,9.30
2022-08-30T10:21:29.757Z,7.20
2022-08-30T10:24:02.263Z,7.55
2022-08-30T10:26:34.091Z,9.00
2022-08-30T10:29:07.786Z,7.00
2022-08-30T10:31:42.897Z,6.20
2022-08-30T10:34:19.812Z,9.88
2022-08-30T10:36:52.500Z,6.75
2022-08-30T10:39:25.378Z,7.05
2022-08-30T10:42:00.576Z,10.02
2022-08-30T10:44:32.639Z,6.90
2022-08-30T10:47:07.380Z,7.03
2022-08-30T10:49:43.022Z,6.35
2022-08-30T10:52:25.671Z,8.50
2022-08-30T10:54:58.677Z,5.70
2022-08-30T10:57:26.716Z,6.07
2022-08-30T11:00:00.544Z,7.13
2022-08-30T11:03:08.523Z,6.32
2022-08-30T11:05:56.562Z,7.78
2022-08-30T11:08:42.961Z,8.32
2022-08-30T11:11:22.486Z,6.07
2022-08-30T11:13:54.671Z,5.78
2022-08-30T11:16:36.456Z,6.88
2022-08-30T11:19:14.643Z,8.55
2022-08-30T11:21:44.683Z,7.72
2022-08-30T11:24:14.995Z,7.28
2022-08-30T11:26:57.243Z,7.70
2022-08-30T11:29:43.320Z,6.57
2022-08-30T11:32:45.675Z,5.72
2022-08-30T11:35:47.399Z,6.38
2022-08-30T11:38:41.259Z,5.97
2022-08-30T11:41:11.916Z,6.07
2022-08-30T11:43:56.026Z,5.10
2022-08-30T11:46:40.077Z,5.70
2022-08-30T11:49:36.636Z,6.13
2022-08-30T11:52:28.091Z,5.50
2022-08-30T11:55:18.464Z,7.80
2022-08-30T11:57:51.303Z,6.28
2022-08-30T12:00:34.374Z,8.02
2022-08-30T12:03:05.450Z,6.40
2022-08-30T12:06:06.770Z,6.18
2022-08-30T12:09:02.751Z,7.28
2022-08-30T12:12:05.757Z,9.45
2022-08-30T12:14:41.401Z,9.65
2022-08-30T12:17:35.769Z,8.30
2022-08-30T12:20:06.070Z,8.98
2022-08-30T12:22:37.778Z,7.07
2022-08-30T12:25:16.695Z,5.72
2022-08-30T12:27:45.907Z,6.03
2022-08-30T12:30:15.500Z,6.38
2022-08-30T12:32:49.929Z,7.68
2022-08-30T12:35:23.303Z,7.90
2022-08-30T12:38:00.370Z,6.13
2022-08-30T12:40:31.095Z,6.60
2022-08-30T12:43:04.200Z,7.53
2022-08-30T12:45:42.993Z,5.63
2022-08-30T12:48:15.268Z,5.75
2022-08-30T12:50:48.918Z,6.03
2022-08-30T12:53:25.190Z,8.75
2022-08-30T12:55:55.670Z,7.45
2022-08-30T12:58:39.345Z,6.05
2022-08-30T13:01:29.387Z,8.10
2022-08-30T13:04:02.435Z,11.20
2022-08-30T13:06:49.288Z,6.20
2022-08-30T13:09:27.947Z,7.65
2022-08-30T13:12:01.951Z,6.45
2022-08-30T13:14:38.180Z,6.55
2022-08-30T13:17:21.329Z,6.38
2022-08-30T13:19:59.240Z,6.18
2022-08-30T13:22:29.510Z,7.03
2022-08-30T13:24:58.240Z,10.68
2022-08-30T13:27:26.916Z,6.20
2022-08-30T13:29:56.356Z,6.95
2022-08-30T13:32:24.904Z,9.13
2022-08-30T13:34:52.782Z,9.70
2022-08-30T13:40:13.875Z,6.60
2022-08-30T13:42:42.884Z,6.32
2022-08-30T13:48:01.796Z,7.05
2022-08-30T13:50:30.521Z,8.50
2022-08-30T13:52:59.056Z,6.20
2022-08-30T13:55:27.184Z,7.15
2022-08-30T13:57:56.647Z,6.57
2022-08-30T14:00:27.434Z,9.15
2022-08-30T14:03:00.030Z,7.45
2022-08-30T14:06:04.942Z,7.15
2022-08-30T14:11:09.232Z,6.57
2022-08-30T14:14:14.606Z,5.95
2022-08-30T14:16:29.461Z,6.50
2022-08-30T14:18:57.437Z,7.35
2022-08-30T14:21:28.925Z,6.43
2022-08-30T14:23:58.008Z,7.82
2022-08-30T14:26:32.732Z,7.78
2022-08-30T14:29:01.938Z,6.47
2022-08-30T14:31:32.726Z,6.45
2022-08-30T14:34:03.384Z,7.03
2022-08-30T14:36:32.313Z,8.88
2022-08-30T14:39:00.125Z,5.80
2022-08-30T14:41:28.352Z,7.70
2022-08-30T14:43:56.169Z,9.35
2022-08-30T14:46:25.733Z,5.40
2022-08-30T14:48:55.481Z,7.32
2022-08-30T14:51:24.888Z,5.15
2022-08-30T14:53:53.928Z,6.05
2022-08-30T14:56:24.969Z,10.52
2022-08-30T14:59:00.338Z,6.60
2022-08-30T15:03:59.196Z,5.78
2022-08-30T15:06:28.853Z,6.00
2022-08-30T15:08:57.287Z,5.82
2022-08-30T15:11:26.972Z,7.25
2022-08-30T15:13:57.606Z,6.13
2022-08-30T15:16:28.454Z,6.95
2022-08-30T15:18:59.061Z,6.10
2022-08-30T15:21:30.856Z,8.43
2022-08-30T15:24:00.904Z,5.63
2022-08-30T15:26:29.364Z,7.15
2022-08-30T15:28:57.840Z,5.97
2022-08-30T15:31:29.562Z,7.13
2022-08-30T15:33:59.474Z,6.18
2022-08-30T15:36:29.202Z,6.72
2022-08-30T15:38:57.090Z,5.70
2022-08-30T15:41:25.144Z,7.07
2022-08-30T15:43:55.288Z,4.97
2022-08-30T15:46:29.922Z,7.97
2022-08-30T15:49:03.271Z,6.32
2022-08-30T15:51:41.283Z,5.72
2022-08-30T15:54:11.499Z,4.60
2022-08-30T15:56:41.873Z,5.55
2022-08-30T15:59:10.731Z,10.20
2022-08-30T16:01:40.078Z,5.20
2022-08-30T16:04:09.504Z,4.90
2022-08-30T16:06:39.418Z,5.00
2022-08-30T16:09:08.282Z,6.07
2022-08-30T16:11:36.857Z,6.15
2022-08-30T16:14:06.862Z,6.18
2022-08-30T16:16:37.570Z,5.28
2022-08-30T16:19:05.970Z,7.68
2022-08-30T16:21:37.001Z,9.35
2022-08-30T16:24:07.201Z,5.72
2022-08-30T16:26:36.762Z,15.13
2022-08-30T16:29:07.188Z,12.75
2022-08-30T16:31:36.134Z,6.50
2022-08-30T16:34:04.752Z,7.78
2022-08-30T16:36:35.793Z,11.35
2022-08-30T16:39:08.338Z,5.65
2022-08-30T16:41:36.902Z,5.25
2022-08-30T16:44:06.281Z,9.98
2022-08-30T16:46:35.260Z,8.45
2022-08-30T16:49:03.524Z,9.80
2022-08-30T16:51:33.929Z,9.00
2022-08-30T16:54:07.638Z,13.52
2022-08-30T16:56:37.405Z,7.18
2022-08-30T16:59:10.813Z,8.63
2022-08-30T17:01:39.848Z,10.55
2022-08-30T17:04:08.627Z,29.05
2022-08-30T17:06:36.907Z,26.52
2022-08-30T17:09:07.148Z,6.85
2022-08-30T17:11:35.924Z,6.63
2022-08-30T17:14:04.284Z,9.38
2022-08-30T17:16:32.569Z,6.22
2022-08-30T17:19:01.604Z,6.38
2022-08-30T17:21:32.454Z,6.25
2022-08-30T17:24:01.886Z,6.15
2022-08-30T17:26:32.709Z,6.70
2022-08-30T17:29:00.987Z,5.70
2022-08-30T17:31:30.903Z,8.40
2022-08-30T17:34:02.939Z,6.55
2022-08-30T17:36:31.916Z,6.40
2022-08-30T17:38:59.913Z,7.50
2022-08-30T17:41:27.694Z,10.25
2022-08-30T17:43:57.203Z,7.90
2022-08-30T17:46:25.238Z,11.77
2022-08-30T17:49:00.973Z,9.55
2022-08-30T17:51:30.398Z,10.27
2022-08-30T17:53:58.572Z,8.32
2022-08-30T17:56:34.271Z,9.15
2022-08-30T17:59:07.943Z,9.40
2022-08-30T18:01:37.921Z,8.90
2022-08-30T18:04:06.612Z,7.47
2022-08-30T18:06:34.656Z,10.75
2022-08-30T18:09:02.649Z,8.10
2022-08-30T18:11:30.484Z,8.60
2022-08-30T18:13:58.607Z,11.02
2022-08-30T18:16:27.880Z,10.00
2022-08-30T18:18:57.499Z,9.00
2022-08-30T18:21:28.435Z,13.13
2022-08-30T18:23:57.621Z,8.82
2022-08-30T18:26:27.540Z,12.73
2022-08-30T18:28:55.539Z,10.07
2022-08-30T18:31:23.380Z,9.38
2022-08-30T18:33:52.749Z,13.13
2022-08-30T18:36:20.703Z,8.45
2022-08-30T18:38:48.512Z,7.85
2022-08-30T18:41:16.324Z,8.50
2022-08-30T18:43:44.992Z,8.85
2022-08-30T18:46:14.938Z,9.65
2022-08-30T18:48:43.565Z,8.00
2022-08-30T18:51:15.636Z,12.20
2022-08-30T18:53:43.854Z,9.10
2022-08-30T18:56:12.260Z,12.48
2022-08-30T18:58:44.640Z,9.48
2022-08-30T19:01:13.459Z,9.40
2022-08-30T19:03:42.361Z,11.73
2022-08-30T19:06:12.356Z,11.40
2022-08-30T19:08:41.836Z,12.15
2022-08-30T19:11:13.842Z,10.68
2022-08-30T19:13:41.623Z,9.02
2022-08-30T19:16:11.983Z,9.65
2022-08-30T19:18:42.287Z,12.60
2022-08-30T19:21:13.576Z,10.18
2022-08-30T19:23:43.108Z,10.60
2022-08-30T19:26:11.037Z,9.70
2022-08-30T19:28:38.973Z,12.13
2022-08-30T19:31:07.213Z,15.43
2022-08-30T19:33:35.994Z,11.15
2022-08-30T19:36:06.693Z,13.27
2022-08-30T19:38:35.425Z,15.73
2022-08-30T19:41:05.352Z,10.32
2022-08-30T19:43:33.197Z,9.90
2022-08-30T19:46:01.570Z,10.40
2022-08-30T19:48:32.799Z,11.02
2022-08-30T19:51:06.532Z,13.10
2022-08-30T19:53:34.760Z,13.25
2022-08-30T19:56:06.947Z,12.38
2022-08-30T19:58:35.240Z,12.13
2022-08-30T20:01:12.281Z,14.18
2022-08-30T20:03:53.365Z,11.75
2022-08-30T20:06:27.634Z,13.73
2022-08-30T20:08:56.607Z,13.50
2022-08-30T20:11:30.634Z,16.60
2022-08-30T20:13:59.043Z,11.10
2022-08-30T20:16:35.740Z,12.25
2022-08-30T20:19:06.528Z,12.88
2022-08-30T20:21:34.614Z,14.43
2022-08-30T20:24:04.192Z,15.63
2022-08-30T20:26:34.560Z,12.50
2022-08-30T20:29:02.847Z,14.02
2022-08-30T20:31:31.006Z,13.60
2022-08-30T20:33:58.908Z,13.57
2022-08-30T20:36:26.761Z,11.82
2022-08-30T20:38:54.795Z,11.75
2022-08-30T20:41:23.305Z,14.27
2022-08-30T20:43:55.970Z,11.68
2022-08-30T20:46:24.048Z,11.77
2022-08-30T20:48:52.799Z,15.38
2022-08-30T20:51:23.012Z,12.98
2022-08-30T20:53:51.675Z,14.68
2022-08-30T20:56:22.507Z,11.95
2022-08-30T20:58:52.180Z,12.48
2022-08-30T21:01:20.346Z,13.80
2022-08-30T21:03:50.402Z,14.38
2022-08-30T21:06:18.213Z,15.80
2022-08-30T21:08:46.053Z,15.45
2022-08-30T21:11:13.988Z,14.10
2022-08-30T21:13:41.769Z,13.57
2022-08-30T21:16:12.386Z,19.73
2022-08-30T21:18:40.346Z,15.07
2022-08-30T21:21:12.829Z,15.73
2022-08-30T21:23:40.830Z,17.48
2022-08-30T21:26:10.493Z,17.17
2022-08-30T21:28:40.146Z,13.52
2022-08-30T21:31:11.686Z,16.90
2022-08-30T21:33:40.621Z,13.90
2022-08-30T21:36:27.752Z,12.80
2022-08-30T21:39:00.871Z,13.52
2022-08-30T21:41:30.131Z,12.85
2022-08-30T21:43:58.899Z,13.13
2022-08-30T21:46:29.625Z,13.13
2022-08-30T21:49:02.007Z,11.50
2022-08-30T21:51:32.755Z,11.70
2022-08-30T21:54:02.292Z,13.15
2022-08-30T21:56:30.844Z,12.70
2022-08-30T21:58:58.687Z,12.60
2022-08-30T22:01:30.695Z,12.73
2022-08-30T22:04:00.790Z,13.80
2022-08-30T22:06:30.977Z,11.80
2022-08-30T22:09:01.060Z,15.55
2022-08-30T22:11:32.203Z,13.18
2022-08-30T22:14:00.597Z,13.35
2022-08-30T22:16:30.330Z,18.83
2022-08-30T22:18:58.460Z,13.60
2022-08-30T22:21:28.631Z,14.38
2022-08-30T22:23:56.477Z,17.88
2022-08-30T22:26:25.422Z,18.23
2022-08-30T22:28:54.416Z,14.38
2022-08-30T22:31:24.439Z,14.65
2022-08-30T22:33:55.004Z,16.33
2022-08-30T22:36:24.796Z,19.23
2022-08-30T22:39:01.865Z,14.02
2022-08-30T22:41:33.987Z,16.27
2022-08-30T22:44:02.414Z,14.30
2022-08-30T22:46:34.894Z,14.73
2022-08-30T22:49:06.739Z,16.00
2022-08-30T22:51:35.059Z,19.88
2022-08-30T22:54:03.741Z,15.95
2022-08-30T22:56:33.773Z,14.07
2022-08-30T22:59:05.575Z,16.88
2022-08-30T23:06:34.030Z,15.45
2022-08-30T23:09:02.358Z,13.35
2022-08-30T23:11:33.598Z,16.33
2022-08-30T23:14:01.642Z,16.75
2022-08-30T23:16:29.517Z,15.05
2022-08-30T23:18:57.327Z,17.35
2022-08-30T23:21:28.406Z,13.82
2022-08-30T23:24:16.914Z,14.10
2022-08-30T23:27:04.257Z,17.15
2022-08-30T23:29:50.159Z,16.40
2022-08-30T23:32:35.382Z,18.63
2022-08-30T23:35:20.853Z,14.70
2022-08-30T23:38:12.625Z,15.77
2022-08-30T23:40:59.455Z,19.27
2022-08-30T23:43:44.665Z,15.18
2022-08-30T23:46:30.087Z,16.90
2022-08-30T23:49:15.257Z,17.15
2022-08-30T23:52:00.716Z,15.80
2022-08-30T23:54:46.031Z,15.48
2022-08-30T23:57:33.141Z,19.90
